PWSweather.com
Personal Weather Stations
Station Observations
KPAGREEN17
Chestnut Hill Farm, Greensburg, PA 15601

Chestnut Hill FarmGreensburg, PA 15601

Lat: 40.32, Lon: -79.55

Elevation: 1148

Station Type: OR 968

Latest ConditionsUpdated 1:30:06 PM EST Wednesday, Mar 4, 2015
Currently Today's Max Today's Min Today's Average
Temperature 36.3°F2.4°C 47.5°F8.6°C 34.0°F1.1°C 38.4°F3.6°C
Dew Point 36.3°F2.4°C 47.5°F8.6°C 34.0°F1.1°C 38.4°F3.6°C
Winds Calm Calm 2.3 mph S3.7 kmh S - 0.4 mph 0.6 kmh
Wind Gusts -- 4.6 mph7.4 kmh - -
Humidity 100% 100% 100% 100%
Pressure 29.95 in1014.2 mb 29.98 in1015.2 mb 29.80 in1009.1 mb -
Precipitation - 0.69 in17.5 mm - -
Hour Temp Dew Point Humidity Winds Wind Gusts Pressure Precip Precip Rate Daily Precip Total
01:30 PM 36.3°F2.4°C 36.3°F2.4°C 100% Calm Calm -- 29.95 in1014.2 mb 0.00 in0.0 mm 0.00 in/hr0.0 mm/hr 0.69 in17.5 mm
01:15 PM 36.3°F2.4°C 36.3°F2.4°C 100% Calm Calm 1.2 mph1.9 kmh 29.95 in1014.2 mb 0.00 in0.0 mm 0.00 in/hr0.0 mm/hr 0.69 in17.5 mm
01:00 PM 36.0°F2.2°C 36.0°F2.2°C 100% Calm Calm -- 29.95 in1014.2 mb 0.00 in0.0 mm 0.00 in/hr0.0 mm/hr 0.69 in17.5 mm
12:45 PM 36.0°F2.2°C 36.0°F2.2°C 100% Calm Calm -- 29.95 in1014.2 mb 0.00 in0.0 mm 0.00 in/hr0.0 mm/hr 0.69 in17.5 mm
12:30 PM 35.9°F2.2°C 35.9°F2.2°C 100% Calm Calm -- 29.95 in1014.2 mb 0.00 in0.0 mm 0.00 in/hr0.0 mm/hr 0.69 in17.5 mm
12:15 PM 35.8°F2.1°C 35.8°F2.1°C 100% Calm Calm -- 29.95 in1014.2 mb 0.00 in0.0 mm 0.00 in/hr0.0 mm/hr 0.69 in17.5 mm
12:00 PM 35.8°F2.1°C 35.8°F2.1°C 100% Calm Calm -- 29.95 in1014.2 mb 0.04 in1.0 mm 0.05 in/hr1.3 mm/hr 0.69 in17.5 mm
11:45 AM 35.8°F2.1°C 35.8°F2.1°C 100% Calm Calm 1.2 mph1.9 kmh 29.98 in1015.2 mb 0.00 in0.0 mm 0.00 in/hr0.0 mm/hr 0.65 in16.5 mm
11:30 AM 35.8°F2.1°C 35.8°F2.1°C 100% Calm Calm 1.2 mph1.9 kmh 29.95 in1014.2 mb 0.00 in0.0 mm 0.00 in/hr0.0 mm/hr 0.65 in16.5 mm
11:15 AM 35.7°F2.1°C 35.7°F2.1°C 100% Calm Calm 1.2 mph1.9 kmh 29.95 in1014.2 mb 0.00 in0.0 mm 0.00 in/hr0.0 mm/hr 0.65 in16.5 mm
11:00 AM 35.4°F1.9°C 35.4°F1.9°C 100% 1.2 mph WSW1.9 kmh WSW 2.3 mph3.7 kmh 29.95 in1014.2 mb 0.00 in0.0 mm 0.00 in/hr0.0 mm/hr 0.65 in16.5 mm
10:45 AM 35.4°F1.9°C 35.4°F1.9°C 100% 1.2 mph WNW1.9 kmh WNW 2.3 mph3.7 kmh 29.98 in1015.2 mb 0.04 in1.0 mm 0.16 in/hr4.1 mm/hr 0.65 in16.5 mm
10:30 AM 35.2°F1.8°C 35.2°F1.8°C 100% Calm Calm 3.5 mph5.6 kmh 29.95 in1014.2 mb 0.00 in0.0 mm 0.00 in/hr0.0 mm/hr 0.61 in15.5 mm
10:15 AM 35.2°F1.8°C 35.2°F1.8°C 100% Calm Calm -- 29.95 in1014.2 mb 0.00 in0.0 mm 0.00 in/hr0.0 mm/hr 0.61 in15.5 mm
10:00 AM 35.1°F1.7°C 35.1°F1.7°C 100% Calm Calm -- 29.95 in1014.2 mb 0.00 in0.0 mm 0.00 in/hr0.0 mm/hr 0.61 in15.5 mm
09:45 AM 35.0°F1.7°C 35.0°F1.7°C 100% Calm Calm -- 29.95 in1014.2 mb 0.04 in1.0 mm 0.16 in/hr4.1 mm/hr 0.61 in15.5 mm
09:30 AM 34.9°F1.6°C 34.9°F1.6°C 100% Calm Calm -- 29.98 in1015.2 mb 0.00 in0.0 mm 0.00 in/hr0.0 mm/hr 0.58 in14.7 mm
09:15 AM 34.5°F1.4°C 34.5°F1.4°C 100% Calm Calm -- 29.98 in1015.2 mb 0.00 in0.0 mm 0.00 in/hr0.0 mm/hr 0.58 in14.7 mm
09:00 AM 34.3°F1.3°C 34.3°F1.3°C 100% Calm Calm -- 29.98 in1015.2 mb 0.04 in1.0 mm 0.05 in/hr1.3 mm/hr 0.58 in14.7 mm
08:45 AM 34.0°F1.1°C 34.0°F1.1°C 100% Calm Calm -- 29.98 in1015.2 mb 0.00 in0.0 mm 0.00 in/hr0.0 mm/hr 0.54 in13.7 mm
08:30 AM 34.0°F1.1°C 34.0°F1.1°C 100% Calm Calm -- 29.95 in1014.2 mb 0.00 in0.0 mm 0.00 in/hr0.0 mm/hr 0.54 in13.7 mm
08:15 AM 34.2°F1.2°C 34.2°F1.2°C 100% Calm Calm -- 29.95 in1014.2 mb 0.00 in0.0 mm 0.00 in/hr0.0 mm/hr 0.54 in13.7 mm
08:00 AM 34.0°F1.1°C 34.0°F1.1°C 100% Calm Calm -- 29.95 in1014.2 mb 0.00 in0.0 mm 0.00 in/hr0.0 mm/hr 0.54 in13.7 mm
07:45 AM 34.0°F1.1°C 34.0°F1.1°C 100% Calm Calm -- 29.95 in1014.2 mb 0.00 in0.0 mm 0.00 in/hr0.0 mm/hr 0.54 in13.7 mm
07:30 AM 34.0°F1.1°C 34.0°F1.1°C 100% Calm Calm -- 29.95 in1014.2 mb 0.00 in0.0 mm 0.00 in/hr0.0 mm/hr 0.54 in13.7 mm
07:15 AM 34.2°F1.2°C 34.2°F1.2°C 100% Calm Calm -- 29.95 in1014.2 mb 0.00 in0.0 mm 0.00 in/hr0.0 mm/hr 0.54 in13.7 mm
07:00 AM 34.5°F1.4°C 34.5°F1.4°C 100% Calm Calm -- 29.95 in1014.2 mb 0.00 in0.0 mm 0.00 in/hr0.0 mm/hr 0.54 in13.7 mm
06:45 AM 35.1°F1.7°C 35.1°F1.7°C 100% Calm Calm -- 29.95 in1014.2 mb 0.04 in1.0 mm 0.16 in/hr4.1 mm/hr 0.54 in13.7 mm
06:30 AM 35.4°F1.9°C 35.4°F1.9°C 100% Calm Calm -- 29.95 in1014.2 mb 0.00 in0.0 mm 0.00 in/hr0.0 mm/hr 0.50 in12.7 mm
06:15 AM 36.0°F2.2°C 36.0°F2.2°C 100% Calm Calm -- 29.95 in1014.2 mb 0.04 in1.0 mm 0.16 in/hr4.1 mm/hr 0.50 in12.7 mm
06:00 AM 36.3°F2.4°C 36.3°F2.4°C 100% Calm Calm -- 29.92 in1013.2 mb 0.00 in0.0 mm 0.00 in/hr0.0 mm/hr 0.46 in11.7 mm
05:45 AM 36.9°F2.7°C 36.9°F2.7°C 100% Calm Calm 1.2 mph1.9 kmh 29.92 in1013.2 mb 0.05 in1.3 mm 0.20 in/hr5.1 mm/hr 0.46 in11.7 mm
05:30 AM 37.6°F3.1°C 37.6°F3.1°C 100% Calm Calm -- 29.92 in1013.2 mb 0.04 in1.0 mm 0.16 in/hr4.1 mm/hr 0.41 in10.4 mm
05:15 AM 38.1°F3.4°C 38.1°F3.4°C 100% 1.2 mph SW1.9 kmh SW 2.3 mph3.7 kmh 29.92 in1013.2 mb 0.00 in0.0 mm 0.00 in/hr0.0 mm/hr 0.37 in9.4 mm
05:00 AM 38.7°F3.7°C 38.7°F3.7°C 100% Calm Calm -- 29.89 in1012.2 mb 0.04 in1.0 mm 0.05 in/hr1.3 mm/hr 0.37 in9.4 mm
04:45 AM 39.0°F3.9°C 39.0°F3.9°C 100% 1.2 mph W1.9 kmh W -- 29.89 in1012.2 mb 0.04 in1.0 mm 0.16 in/hr4.1 mm/hr 0.33 in8.4 mm
04:30 AM 39.6°F4.2°C 39.6°F4.2°C 100% 1.2 mph SE1.9 kmh SE 1.2 mph1.9 kmh 29.89 in1012.2 mb 0.04 in1.0 mm 0.16 in/hr4.1 mm/hr 0.29 in7.4 mm
04:15 AM 39.8°F4.3°C 39.8°F4.3°C 100% Calm Calm 1.2 mph1.9 kmh 29.89 in1012.2 mb 0.00 in0.0 mm 0.00 in/hr0.0 mm/hr 0.25 in6.4 mm
04:00 AM 40.3°F4.6°C 40.3°F4.6°C 100% Calm Calm 1.2 mph1.9 kmh 29.86 in1011.2 mb 0.00 in0.0 mm 0.00 in/hr0.0 mm/hr 0.25 in6.4 mm
03:45 AM 40.7°F4.8°C 40.7°F4.8°C 100% Calm Calm 1.2 mph1.9 kmh 29.86 in1011.2 mb 0.00 in0.0 mm 0.00 in/hr0.0 mm/hr 0.25 in6.4 mm
03:30 AM 41.4°F5.2°C 41.4°F5.2°C 100% 1.2 mph SW1.9 kmh SW 4.6 mph7.4 kmh 29.86 in1011.2 mb 0.04 in1.0 mm 0.16 in/hr4.1 mm/hr 0.25 in6.4 mm
03:15 AM 41.9°F5.5°C 41.9°F5.5°C 100% 1.2 mph WSW1.9 kmh WSW -- 29.86 in1011.2 mb 0.00 in0.0 mm 0.00 in/hr0.0 mm/hr 0.21 in5.3 mm
03:00 AM 42.5°F5.8°C 42.5°F5.8°C 100% Calm Calm 1.2 mph1.9 kmh 29.86 in1011.2 mb 0.04 in1.0 mm 0.05 in/hr1.3 mm/hr 0.21 in5.3 mm
02:45 AM 43.2°F6.2°C 43.2°F6.2°C 100% 1.2 mph NE1.9 kmh NE 4.6 mph7.4 kmh 29.86 in1011.2 mb 0.04 in1.0 mm 0.16 in/hr4.1 mm/hr 0.17 in4.3 mm
02:30 AM 43.7°F6.5°C 43.7°F6.5°C 100% 2.3 mph S3.7 kmh S 3.5 mph5.6 kmh 29.86 in1011.2 mb 0.00 in0.0 mm 0.00 in/hr0.0 mm/hr 0.13 in3.3 mm
02:15 AM 44.1°F6.7°C 44.1°F6.7°C 100% 1.2 mph N1.9 kmh N 1.2 mph1.9 kmh 29.86 in1011.2 mb 0.00 in0.0 mm 0.00 in/hr0.0 mm/hr 0.13 in3.3 mm
02:00 AM 44.4°F6.9°C 44.4°F6.9°C 100% 1.2 mph 1.9 kmh 2.3 mph3.7 kmh 29.83 in1010.2 mb 0.04 in1.0 mm 0.05 in/hr1.3 mm/hr 0.13 in3.3 mm
01:45 AM 44.3°F6.8°C 44.3°F6.8°C 100% Calm Calm -- 29.83 in1010.2 mb 0.00 in0.0 mm 0.00 in/hr0.0 mm/hr 0.09 in2.3 mm
01:30 AM 45.1°F7.3°C 45.1°F7.3°C 100% 1.2 mph W1.9 kmh W 2.3 mph3.7 kmh 29.83 in1010.2 mb 0.05 in1.3 mm 0.20 in/hr5.1 mm/hr 0.09 in2.3 mm
01:15 AM 45.3°F7.4°C 45.3°F7.4°C 100% 1.2 mph WSW1.9 kmh WSW -- 29.83 in1010.2 mb 0.04 in1.0 mm 0.16 in/hr4.1 mm/hr 0.04 in1.0 mm
01:00 AM 45.9°F7.7°C 45.9°F7.7°C 100% 1.2 mph WSW1.9 kmh WSW 2.3 mph3.7 kmh 29.83 in1010.2 mb 0.00 in0.0 mm 0.00 in/hr0.0 mm/hr 0.04 in1.0 mm
12:45 AM 46.6°F8.1°C 46.6°F8.1°C 100% 1.2 mph ESE1.9 kmh ESE 3.5 mph5.6 kmh 29.83 in1010.2 mb 0.00 in0.0 mm 0.00 in/hr0.0 mm/hr 0.04 in1.0 mm
12:30 AM 46.4°F8.0°C 46.4°F8.0°C 100% Calm Calm 2.3 mph3.7 kmh 29.83 in1010.2 mb 0.00 in0.0 mm 0.00 in/hr0.0 mm/hr 0.04 in1.0 mm
12:15 AM 46.6°F8.1°C 46.6°F8.1°C 100% 2.3 mph 3.7 kmh 3.5 mph5.6 kmh 29.80 in1009.1 mb 0.00 in0.0 mm 0.00 in/hr0.0 mm/hr 0.04 in1.0 mm
12:00 AM 47.5°F8.6°C 47.5°F8.6°C 100% 1.2 mph WSW1.9 kmh WSW 1.2 mph1.9 kmh 29.80 in1009.1 mb 0.04 in1.0 mm 0.00 in/hr0.0 mm/hr 0.04 in1.0 mm